Eyers Grove, Pennsylvania
Current Conditions -  °F | °C
As of 2:54 AM on Saturday 25 Oct 2014 (Local Time) from KIPT Reporting Station
Clear Clear  
Wind Chill:   Ceiling: Unl
Heat Index:   Visibility: 10mi
Dew Point:   Wind: 6mph
Humidity: 68%   Direction: 340°NNW
Pressure: 29.94"   Gusts: NA
Location:  41.1401°N, 76.5245°W
Report Text: KIPT 250654Z AUTO 34005KT 10SM CLR 06/01 A2994 RMK AO2 SLP137 T00610006
Loading
Personal Weather Stations






























Interactive Weather Map
Tropical Storm Tracking
New forecast layout! Learn more

10-Day Weather Forecast

Advertisements
Track Severe Weather on mobile